createdAt,value
2022-10-23T00:00:04.837Z,99.99
2022-10-23T00:01:24.718Z,99.99
2022-10-23T00:02:03.992Z,99.99
2022-10-23T00:03:03.673Z,99.99
2022-10-23T00:04:04.653Z,99.99
2022-10-23T00:05:05.274Z,99.99
2022-10-23T00:06:05.043Z,99.99
2022-10-23T00:07:04.216Z,99.99
2022-10-23T00:08:05.145Z,99.99
2022-10-23T00:09:04.060Z,99.99
2022-10-23T00:10:05.228Z,99.99
2022-10-23T00:11:23.547Z,99.99
2022-10-23T00:12:04.906Z,99.99
2022-10-23T00:13:04.216Z,99.99
2022-10-23T00:14:04.948Z,99.99
2022-10-23T00:15:05.247Z,99.99
2022-10-23T00:16:04.547Z,99.99
2022-10-23T00:17:05.347Z,99.99
2022-10-23T00:18:05.130Z,99.99
2022-10-23T00:19:04.223Z,99.99
2022-10-23T00:20:04.689Z,99.99
2022-10-23T00:21:23.516Z,99.99
2022-10-23T00:22:05.319Z,99.99
2022-10-23T00:23:04.599Z,99.99
2022-10-23T00:24:03.561Z,99.99
2022-10-23T00:25:04.225Z,99.99
2022-10-23T00:26:04.958Z,99.99
2022-10-23T00:27:05.243Z,99.99
2022-10-23T00:28:05.014Z,99.99
2022-10-23T00:29:04.798Z,99.99
2022-10-23T00:30:03.681Z,99.99
2022-10-23T00:31:23.395Z,99.99
2022-10-23T00:32:05.104Z,99.99
2022-10-23T00:33:04.892Z,99.99
2022-10-23T00:34:04.413Z,99.99
2022-10-23T00:35:04.977Z,99.99
2022-10-23T00:36:04.265Z,99.99
2022-10-23T00:37:04.237Z,99.99
2022-10-23T00:38:04.913Z,99.99
2022-10-23T00:39:03.307Z,99.99
2022-10-23T00:40:04.975Z,99.99
2022-10-23T00:41:23.292Z,99.99
2022-10-23T00:42:04.625Z,99.99
2022-10-23T00:43:04.235Z,99.99
2022-10-23T00:44:04.209Z,99.99
2022-10-23T00:45:04.496Z,99.99
2022-10-23T00:46:04.275Z,99.99
2022-10-23T00:47:05.046Z,99.99
2022-10-23T00:48:04.835Z,99.99
2022-10-23T00:49:03.311Z,99.99
2022-10-23T00:50:04.901Z,99.99
2022-10-23T00:51:23.196Z,99.99
2022-10-23T00:52:03.575Z,99.99
2022-10-23T00:53:04.798Z,99.99
2022-10-23T00:55:04.410Z,99.99
2022-10-23T00:56:04.145Z,99.99
2022-10-23T00:57:04.917Z,99.99
2022-10-23T00:58:04.717Z,99.99
2022-10-23T00:59:04.506Z,99.99
2022-10-23T01:00:03.771Z,99.99
2022-10-23T01:01:24.736Z,99.99
2022-10-23T01:02:03.453Z,99.99
2022-10-23T01:03:03.816Z,99.99
2022-10-23T01:04:04.332Z,99.99
2022-10-23T01:05:04.621Z,99.99
2022-10-23T01:06:04.290Z,99.99
2022-10-23T01:07:03.206Z,99.99
2022-10-23T01:08:02.933Z,99.99
2022-10-23T01:09:05.529Z,99.99
2022-10-23T01:10:02.930Z,99.99
2022-10-23T01:11:23.760Z,99.99
2022-10-23T01:12:04.422Z,99.99
2022-10-23T01:13:04.671Z,99.99
2022-10-23T01:15:03.452Z,99.96
2022-10-23T01:16:02.993Z,99.96
2022-10-23T01:17:03.242Z,99.96
2022-10-23T01:18:03.463Z,99.91
2022-10-23T01:19:03.246Z,99.80
2022-10-23T01:20:02.986Z,99.80
2022-10-23T01:21:24.712Z,99.70
2022-10-23T01:22:03.003Z,99.70
2022-10-23T01:23:02.752Z,99.80
2022-10-23T01:24:03.373Z,99.80
2022-10-23T01:25:02.791Z,99.91
2022-10-23T01:26:03.043Z,99.91
2022-10-23T01:27:02.777Z,99.91
2022-10-23T01:28:03.033Z,99.99
2022-10-23T01:29:02.816Z,99.99
2022-10-23T01:30:04.472Z,99.99
2022-10-23T01:31:23.668Z,99.99
2022-10-23T01:32:03.418Z,99.99
2022-10-23T01:33:02.877Z,99.99
2022-10-23T01:34:02.968Z,99.99
2022-10-23T01:35:02.707Z,99.99
2022-10-23T01:36:02.989Z,99.99
2022-10-23T01:37:02.717Z,99.99
2022-10-23T01:38:02.980Z,99.99
2022-10-23T01:40:02.980Z,99.99
2022-10-23T01:41:23.300Z,99.99
2022-10-23T01:42:02.520Z,99.99
2022-10-23T01:43:02.769Z,99.99
2022-10-23T01:44:02.551Z,99.99
2022-10-23T01:45:03.097Z,99.99
2022-10-23T01:46:02.519Z,99.99
2022-10-23T01:47:02.781Z,99.99
2022-10-23T01:48:02.519Z,99.99
2022-10-23T01:49:03.727Z,99.99
2022-10-23T01:50:02.507Z,99.99
2022-10-23T01:51:24.282Z,99.99
2022-10-23T01:52:03.855Z,99.99
2022-10-23T01:53:03.302Z,99.99
2022-10-23T01:54:04.021Z,99.99
2022-10-23T01:55:04.304Z,99.99
2022-10-23T01:56:04.138Z,99.99
2022-10-23T01:57:03.929Z,99.99
2022-10-23T01:58:03.434Z,99.99
2022-10-23T01:59:03.303Z,99.99
2022-10-23T02:00:03.843Z,99.99
2022-10-23T02:01:22.818Z,99.99
2022-10-23T02:02:04.116Z,99.99
2022-10-23T02:03:04.225Z,99.99
2022-10-23T02:04:04.014Z,99.99
2022-10-23T02:05:03.321Z,99.99
2022-10-23T02:06:02.704Z,99.99
2022-10-23T02:07:03.933Z,99.99
2022-10-23T02:08:03.452Z,99.99
2022-10-23T02:09:03.642Z,99.99
2022-10-23T02:10:03.450Z,99.99
2022-10-23T02:11:23.772Z,99.99
2022-10-23T02:12:04.012Z,99.99
2022-10-23T02:13:03.852Z,99.99
2022-10-23T02:14:04.128Z,99.99
2022-10-23T02:15:03.493Z,99.99
2022-10-23T02:16:03.821Z,99.99
2022-10-23T02:17:03.292Z,99.99
2022-10-23T02:18:03.164Z,99.99
2022-10-23T02:19:03.774Z,99.99
2022-10-23T02:20:04.073Z,99.99
2022-10-23T02:21:22.486Z,99.99
2022-10-23T02:22:03.109Z,99.99
2022-10-23T02:23:03.305Z,99.99
2022-10-23T02:24:03.761Z,99.99
2022-10-23T02:25:03.671Z,99.99
2022-10-23T02:26:03.468Z,99.99
2022-10-23T02:27:03.799Z,99.99
2022-10-23T02:28:02.807Z,99.99
2022-10-23T02:29:02.828Z,99.99
2022-10-23T02:30:03.767Z,99.99
2022-10-23T02:31:22.148Z,99.99
2022-10-23T02:32:03.017Z,99.99
2022-10-23T02:33:03.857Z,99.99
2022-10-23T02:34:02.813Z,99.99
2022-10-23T02:35:03.514Z,99.99
2022-10-23T02:36:03.868Z,99.99
2022-10-23T02:37:03.188Z,99.99
2022-10-23T02:38:02.718Z,99.99
2022-10-23T02:39:03.363Z,99.99
2022-10-23T02:40:02.820Z,99.99
2022-10-23T02:41:22.112Z,99.99
2022-10-23T02:42:02.369Z,99.99
2022-10-23T02:43:03.123Z,99.99
2022-10-23T02:44:03.396Z,99.99
2022-10-23T02:45:02.823Z,99.99
2022-10-23T02:46:02.826Z,99.99
2022-10-23T02:47:03.816Z,99.99
2022-10-23T02:48:03.586Z,99.99
2022-10-23T02:49:03.365Z,99.99
2022-10-23T02:50:02.876Z,99.99
2022-10-23T02:51:21.982Z,99.99
2022-10-23T02:52:03.749Z,99.99
2022-10-23T02:53:03.500Z,99.99
2022-10-23T02:54:02.815Z,99.99
2022-10-23T02:55:03.630Z,99.99
2022-10-23T02:56:03.478Z,99.99
2022-10-23T02:57:02.825Z,99.99
2022-10-23T02:58:02.267Z,99.99
2022-10-23T02:59:02.950Z,99.99
2022-10-23T03:00:03.249Z,99.99
2022-10-23T03:01:22.227Z,99.99
2022-10-23T03:02:03.368Z,99.99
2022-10-23T03:03:02.844Z,99.99
2022-10-23T03:04:03.465Z,99.99
2022-10-23T03:05:03.208Z,99.99
2022-10-23T03:06:02.997Z,99.99
2022-10-23T03:07:03.278Z,99.99
2022-10-23T03:08:02.339Z,99.99
2022-10-23T03:09:02.343Z,99.99
2022-10-23T03:10:02.763Z,99.99
2022-10-23T03:11:22.095Z,99.99
2022-10-23T03:12:03.370Z,99.99
2022-10-23T03:13:03.192Z,99.99
2022-10-23T03:14:02.966Z,99.99
2022-10-23T03:15:02.333Z,99.99
2022-10-23T03:16:03.040Z,99.99
2022-10-23T03:17:03.311Z,99.99
2022-10-23T03:18:03.160Z,99.99
2022-10-23T03:19:03.499Z,99.99
2022-10-23T03:20:03.215Z,99.99
2022-10-23T03:21:22.434Z,99.99
2022-10-23T03:22:03.273Z,99.99
2022-10-23T03:23:02.283Z,99.99
2022-10-23T03:24:03.379Z,99.99
2022-10-23T03:25:03.149Z,99.99
2022-10-23T03:26:03.511Z,99.99
2022-10-23T03:27:02.348Z,99.99
2022-10-23T03:28:03.113Z,99.99
2022-10-23T03:29:03.389Z,99.99
2022-10-23T03:30:03.183Z,99.99
2022-10-23T03:31:21.500Z,99.99
2022-10-23T03:32:03.215Z,99.99
2022-10-23T03:33:02.347Z,99.99
2022-10-23T03:34:04.127Z,99.99
2022-10-23T03:35:02.323Z,99.99
2022-10-23T03:36:02.888Z,99.99
2022-10-23T03:37:03.175Z,99.99
2022-10-23T03:38:02.990Z,99.99
2022-10-23T03:39:02.352Z,99.99
2022-10-23T03:40:02.610Z,99.99
2022-10-23T03:41:22.889Z,99.99
2022-10-23T03:42:02.290Z,99.99
2022-10-23T03:43:03.088Z,99.99
2022-10-23T03:45:02.351Z,99.99
2022-10-23T03:46:02.999Z,99.99
2022-10-23T03:47:02.013Z,99.99
2022-10-23T03:48:02.583Z,99.99
2022-10-23T03:49:01.538Z,99.99
2022-10-23T03:50:02.204Z,99.99
2022-10-23T03:51:21.512Z,99.99
2022-10-23T03:52:02.738Z,99.99
2022-10-23T03:53:03.052Z,99.99
2022-10-23T03:54:02.369Z,99.99
2022-10-23T03:55:02.144Z,99.99
2022-10-23T03:56:02.951Z,99.99
2022-10-23T03:57:01.876Z,99.99
2022-10-23T03:58:02.264Z,99.99
2022-10-23T03:59:02.888Z,99.99
2022-10-23T04:00:02.675Z,99.99
2022-10-23T04:01:21.537Z,99.99
2022-10-23T04:02:01.595Z,99.99
2022-10-23T04:03:02.485Z,99.99
2022-10-23T04:04:02.780Z,99.99
2022-10-23T04:05:02.623Z,99.99
2022-10-23T04:06:02.915Z,99.99
2022-10-23T04:07:01.935Z,99.99
2022-10-23T04:08:01.920Z,99.99
2022-10-23T04:09:02.902Z,99.99
2022-10-23T04:10:02.647Z,99.99
2022-10-23T04:11:21.452Z,99.99
2022-10-23T04:12:01.297Z,99.99
2022-10-23T04:13:01.976Z,99.99
2022-10-23T04:14:01.878Z,99.99
2022-10-23T04:15:01.189Z,99.99
2022-10-23T04:16:02.906Z,99.99
2022-10-23T04:17:02.713Z,99.99
2022-10-23T04:18:02.489Z,99.99
2022-10-23T04:19:01.889Z,99.99
2022-10-23T04:20:01.893Z,99.99
2022-10-23T04:21:21.488Z,99.99
2022-10-23T04:22:02.119Z,99.99
2022-10-23T04:23:02.372Z,99.99
2022-10-23T04:24:02.713Z,99.99
2022-10-23T04:25:02.490Z,99.99
2022-10-23T04:26:02.266Z,99.99
2022-10-23T04:27:02.617Z,99.99
2022-10-23T04:28:02.387Z,99.99
2022-10-23T04:29:02.179Z,99.99
2022-10-23T04:30:02.444Z,99.99
2022-10-23T04:31:21.297Z,99.99
2022-10-23T04:32:01.981Z,99.99
2022-10-23T04:33:02.290Z,99.99
2022-10-23T04:34:01.848Z,99.99
2022-10-23T04:35:01.887Z,99.99
2022-10-23T04:36:02.712Z,99.99
2022-10-23T04:37:01.900Z,99.99
2022-10-23T04:38:00.868Z,99.99
2022-10-23T04:39:02.053Z,99.99
2022-10-23T04:40:02.380Z,99.99
2022-10-23T04:41:21.204Z,99.99
2022-10-23T04:42:01.391Z,99.99
2022-10-23T04:43:01.397Z,99.99
2022-10-23T04:44:02.568Z,99.99
2022-10-23T04:45:01.830Z,99.99
2022-10-23T04:46:02.137Z,99.99
2022-10-23T04:47:01.664Z,99.99
2022-10-23T04:48:02.246Z,99.99
2022-10-23T04:49:01.114Z,99.99
2022-10-23T04:50:02.344Z,99.99
2022-10-23T04:51:20.668Z,99.99
2022-10-23T04:52:01.069Z,99.99
2022-10-23T04:53:02.374Z,99.99
2022-10-23T04:54:02.137Z,99.99
2022-10-23T04:55:01.429Z,99.99
2022-10-23T04:56:01.808Z,99.99
2022-10-23T04:57:02.096Z,99.99
2022-10-23T04:58:02.427Z,99.99
2022-10-23T04:59:00.853Z,99.99
2022-10-23T05:00:01.987Z,99.99
2022-10-23T05:01:20.923Z,99.99
2022-10-23T05:02:01.246Z,99.99
2022-10-23T05:03:02.369Z,99.99
2022-10-23T05:04:00.729Z,99.99
2022-10-23T05:05:00.499Z,99.99
2022-10-23T05:06:02.219Z,99.99
2022-10-23T05:07:01.412Z,99.99
2022-10-23T05:08:02.359Z,99.99
2022-10-23T05:09:02.135Z,99.99
2022-10-23T05:10:01.922Z,99.99
2022-10-23T05:11:20.751Z,99.99
2022-10-23T05:12:00.839Z,99.99
2022-10-23T05:13:02.155Z,99.99
2022-10-23T05:14:01.998Z,99.99
2022-10-23T05:15:01.800Z,99.99
2022-10-23T05:16:00.650Z,99.99
2022-10-23T05:17:01.096Z,99.99
2022-10-23T05:18:01.432Z,99.99
2022-10-23T05:19:02.085Z,99.99
2022-10-23T05:20:01.861Z,99.99
2022-10-23T05:21:20.690Z,99.99
2022-10-23T05:22:01.881Z,99.99
2022-10-23T05:23:01.733Z,99.99
2022-10-23T05:24:01.421Z,99.99
2022-10-23T05:25:01.859Z,99.99
2022-10-23T05:26:00.843Z,99.99
2022-10-23T05:27:01.503Z,99.99
2022-10-23T05:28:01.798Z,99.99
2022-10-23T05:29:02.100Z,99.99
2022-10-23T05:30:00.944Z,99.99
2022-10-23T05:31:20.723Z,99.99
2022-10-23T05:32:00.530Z,99.99
2022-10-23T05:33:01.744Z,99.99
2022-10-23T05:34:01.618Z,99.99
2022-10-23T05:35:00.482Z,99.99
2022-10-23T05:36:01.225Z,99.99
2022-10-23T05:37:01.996Z,99.99
2022-10-23T05:38:01.776Z,99.99
2022-10-23T05:39:02.128Z,99.99
2022-10-23T05:40:01.943Z,99.99
2022-10-23T05:41:20.239Z,99.99
2022-10-23T05:42:02.052Z,99.99
2022-10-23T05:43:01.065Z,99.99
2022-10-23T05:44:01.629Z,99.99
2022-10-23T05:45:01.928Z,99.99
2022-10-23T05:46:01.786Z,99.99
2022-10-23T05:47:00.946Z,99.99
2022-10-23T05:48:10.941Z,99.99
2022-10-23T05:49:02.677Z,99.99
2022-10-23T05:50:01.959Z,99.99
2022-10-23T05:51:20.271Z,99.99
2022-10-23T05:52:00.723Z,99.99
2022-10-23T05:53:00.366Z,99.99
2022-10-23T05:54:01.616Z,99.99
2022-10-23T05:55:01.431Z,99.99
2022-10-23T05:56:01.717Z,99.99
2022-10-23T05:57:01.506Z,99.99
2022-10-23T05:58:01.885Z,99.99
2022-10-23T05:59:00.972Z,99.99
2022-10-23T06:00:00.930Z,99.99
2022-10-23T06:01:20.322Z,99.99
2022-10-23T06:02:01.084Z,99.99
2022-10-23T06:03:01.814Z,99.99
2022-10-23T06:04:00.955Z,99.99
2022-10-23T06:05:01.413Z,99.99
2022-10-23T06:06:01.719Z,99.99
2022-10-23T06:07:01.503Z,99.99
2022-10-23T06:08:01.771Z,99.99
2022-10-23T06:09:01.105Z,99.99
2022-10-23T06:10:00.464Z,99.99
2022-10-23T06:11:20.235Z,99.99
2022-10-23T06:12:00.261Z,99.99
2022-10-23T06:13:01.035Z,99.99
2022-10-23T06:14:01.433Z,99.99
2022-10-23T06:15:01.618Z,99.99
2022-10-23T06:16:01.433Z,99.99
2022-10-23T06:17:00.456Z,99.99
2022-10-23T06:18:01.524Z,99.99
2022-10-23T06:19:01.317Z,99.99
2022-10-23T06:20:00.825Z,99.99
2022-10-23T06:21:20.033Z,99.99
2022-10-23T06:22:00.680Z,99.99
2022-10-23T06:23:00.464Z,99.99
2022-10-23T06:24:01.322Z,99.99
2022-10-23T06:25:01.601Z,99.99
2022-10-23T06:26:01.497Z,99.99
2022-10-23T06:27:01.271Z,99.99
2022-10-23T06:28:01.064Z,99.99
2022-10-23T06:29:00.478Z,99.99
2022-10-23T06:30:01.167Z,99.99
2022-10-23T06:31:19.982Z,99.99
2022-10-23T06:31:59.117Z,99.99
2022-10-23T06:33:03.385Z,99.99
2022-10-23T06:34:01.157Z,99.99
2022-10-23T06:35:00.461Z,99.99
2022-10-23T06:36:01.312Z,99.99
2022-10-23T06:37:01.072Z,99.99
2022-10-23T06:38:00.853Z,99.99
2022-10-23T06:39:01.157Z,99.99
2022-10-23T06:40:01.478Z,99.99
2022-10-23T06:41:19.813Z,99.99
2022-10-23T06:42:00.234Z,99.99
2022-10-23T06:43:00.794Z,99.99
2022-10-23T06:44:01.083Z,99.99
2022-10-23T06:45:04.820Z,99.99
2022-10-23T06:46:02.204Z,99.99
2022-10-23T06:47:01.002Z,99.99
2022-10-23T06:48:01.274Z,99.99
2022-10-23T06:49:01.075Z,99.99
2022-10-23T06:50:00.922Z,99.99
2022-10-23T06:51:21.331Z,99.99
2022-10-23T06:51:59.556Z,99.99
2022-10-23T06:52:59.782Z,99.99
2022-10-23T06:53:59.531Z,99.99
2022-10-23T06:54:59.765Z,99.99
2022-10-23T06:55:59.506Z,99.99
2022-10-23T06:56:59.756Z,99.99
2022-10-23T06:57:59.507Z,99.99
2022-10-23T06:59:00.042Z,99.99
2022-10-23T07:00:00.959Z,99.99
2022-10-23T07:01:21.466Z,99.99
2022-10-23T07:01:59.555Z,99.99
2022-10-23T07:02:59.300Z,99.99
2022-10-23T07:03:59.542Z,99.99
2022-10-23T07:04:59.292Z,99.99
2022-10-23T07:05:59.537Z,99.99
2022-10-23T07:06:59.286Z,99.99
2022-10-23T07:07:59.518Z,99.99
2022-10-23T07:08:59.259Z,99.99
2022-10-23T07:09:59.572Z,99.99
2022-10-23T07:11:20.789Z,99.99
2022-10-23T07:11:59.572Z,99.99
2022-10-23T07:12:59.315Z,99.99
2022-10-23T07:13:59.572Z,99.99
2022-10-23T07:14:59.311Z,99.99
2022-10-23T07:15:59.575Z,99.99
2022-10-23T07:16:59.313Z,99.99
2022-10-23T07:17:59.575Z,99.99
2022-10-23T07:18:59.307Z,99.99
2022-10-23T07:19:59.702Z,99.99
2022-10-23T07:21:20.031Z,99.99
2022-10-23T07:22:00.626Z,99.99
2022-10-23T07:23:00.879Z,99.99
2022-10-23T07:24:00.637Z,99.99
2022-10-23T07:25:00.885Z,99.99
2022-10-23T07:26:00.656Z,99.99
2022-10-23T07:26:59.472Z,99.99
2022-10-23T07:28:00.677Z,99.99
2022-10-23T07:28:59.523Z,99.99
2022-10-23T07:30:00.693Z,99.99
2022-10-23T07:31:19.026Z,99.99
2022-10-23T07:31:59.318Z,99.99
2022-10-23T07:32:59.018Z,99.99
2022-10-23T07:33:59.252Z,99.99
2022-10-23T07:34:59.007Z,99.99
2022-10-23T07:36:00.177Z,99.99
2022-10-23T07:36:59.039Z,99.99
2022-10-23T07:38:00.023Z,99.99
2022-10-23T07:38:59.055Z,99.99
2022-10-23T07:40:00.739Z,99.99
2022-10-23T07:41:19.027Z,99.99
2022-10-23T07:41:59.288Z,99.99
2022-10-23T07:42:59.047Z,99.99
2022-10-23T07:43:59.332Z,99.99
2022-10-23T07:45:00.480Z,99.99
2022-10-23T07:45:59.292Z,99.99
2022-10-23T07:47:00.510Z,99.99
2022-10-23T07:47:58.801Z,99.99
2022-10-23T07:49:00.522Z,99.99
2022-10-23T07:49:58.817Z,99.94
2022-10-23T07:51:20.528Z,99.94
2022-10-23T07:51:58.989Z,99.94
2022-10-23T07:52:59.133Z,99.84
2022-10-23T07:53:58.914Z,99.84
2022-10-23T07:55:00.593Z,99.84
2022-10-23T07:55:58.941Z,99.74
2022-10-23T07:56:59.222Z,99.84
2022-10-23T07:57:58.921Z,99.74
2022-10-23T07:58:59.199Z,99.58
2022-10-23T08:00:00.382Z,99.49
2022-10-23T08:01:19.247Z,99.38
2022-10-23T08:01:59.047Z,99.38
2022-10-23T08:02:59.255Z,99.38
2022-10-23T08:03:58.923Z,99.38
2022-10-23T08:04:58.666Z,99.28
2022-10-23T08:05:58.904Z,99.18
2022-10-23T08:06:58.635Z,99.18
2022-10-23T08:07:58.975Z,99.08
2022-10-23T08:09:03.723Z,99.08
2022-10-23T08:09:59.973Z,99.04
2022-10-23T08:11:20.175Z,98.93
2022-10-23T08:12:00.441Z,98.83
2022-10-23T08:12:58.770Z,98.73
2022-10-23T08:13:58.993Z,98.63
2022-10-23T08:15:00.217Z,98.63
2022-10-23T08:15:59.017Z,98.52
2022-10-23T08:16:58.790Z,98.52
2022-10-23T08:17:58.495Z,98.43
2022-10-23T08:18:59.695Z,98.43
2022-10-23T08:19:58.489Z,98.43
2022-10-23T08:21:19.558Z,98.52
2022-10-23T08:21:58.505Z,98.52
2022-10-23T08:22:58.778Z,98.38
2022-10-23T08:23:58.517Z,98.28
2022-10-23T08:24:58.782Z,98.18
2022-10-23T08:25:58.538Z,97.97
2022-10-23T08:26:59.549Z,97.97
2022-10-23T08:27:58.512Z,97.87
2022-10-23T08:28:58.784Z,97.77
2022-10-23T08:29:58.521Z,97.77
2022-10-23T08:31:20.230Z,97.62
2022-10-23T08:31:58.517Z,97.52
2022-10-23T08:32:59.065Z,97.42
2022-10-23T08:33:59.971Z,97.32
2022-10-23T08:34:58.812Z,97.22
2022-10-23T08:35:58.533Z,96.91
2022-10-23T08:36:58.768Z,96.81
2022-10-23T08:37:58.511Z,96.91
2022-10-23T08:38:59.724Z,97.02
2022-10-23T08:39:58.544Z,96.61
2022-10-23T08:41:19.775Z,96.61
2022-10-23T08:41:58.615Z,96.51
2022-10-23T08:42:58.307Z,96.51
2022-10-23T08:43:58.564Z,96.51
2022-10-23T08:44:58.292Z,96.71
2022-10-23T08:45:58.544Z,96.61
2022-10-23T08:46:58.281Z,96.46
2022-10-23T08:47:58.553Z,96.26
2022-10-23T08:48:58.287Z,96.36
2022-10-23T08:49:58.630Z,96.06
2022-10-23T08:51:19.096Z,96.36
2022-10-23T08:51:58.590Z,96.15
2022-10-23T08:52:58.351Z,96.06
2022-10-23T08:54:00.077Z,96.06
2022-10-23T08:54:58.412Z,96.06
2022-10-23T08:55:58.130Z,96.06
2022-10-23T08:56:58.381Z,95.86
2022-10-23T08:57:58.133Z,95.65
2022-10-23T08:58:58.379Z,95.65
2022-10-23T08:59:58.115Z,95.75
2022-10-23T09:01:19.530Z,95.71
2022-10-23T09:01:58.281Z,95.61
2022-10-23T09:02:58.379Z,95.40
2022-10-23T09:03:58.135Z,95.50
2022-10-23T09:04:58.410Z,95.40
2022-10-23T09:05:58.163Z,95.30
2022-10-23T09:06:58.439Z,95.30
2022-10-23T09:07:58.183Z,95.20
2022-10-23T09:08:58.420Z,95.20
2022-10-23T09:09:58.177Z,95.10
2022-10-23T09:11:18.429Z,95.00
2022-10-23T09:11:58.152Z,94.85
2022-10-23T09:12:58.394Z,94.65
2022-10-23T09:13:58.177Z,94.24
2022-10-23T09:14:57.938Z,94.35
2022-10-23T09:15:58.172Z,94.45
2022-10-23T09:16:57.915Z,94.45
2022-10-23T09:17:58.189Z,94.65
2022-10-23T09:18:57.930Z,94.65
2022-10-23T09:19:58.200Z,94.35
2022-10-23T09:21:17.991Z,94.24
2022-10-23T09:21:58.176Z,94.24
2022-10-23T09:22:57.921Z,94.14
2022-10-23T09:23:58.166Z,94.24
2022-10-23T09:24:57.912Z,93.94
2022-10-23T09:25:58.154Z,94.04
2022-10-23T09:26:57.978Z,94.14
2022-10-23T09:28:00.159Z,94.24
2022-10-23T09:28:58.923Z,94.20
2022-10-23T09:29:58.187Z,93.90
2022-10-23T09:31:17.964Z,93.90
2022-10-23T09:31:58.173Z,94.00
2022-10-23T09:32:57.908Z,94.20
2022-10-23T09:33:58.188Z,93.90
2022-10-23T09:34:57.939Z,93.70
2022-10-23T09:35:57.706Z,93.79
2022-10-23T09:36:58.608Z,93.90
2022-10-23T09:37:58.712Z,93.90
2022-10-23T09:38:58.025Z,93.39
2022-10-23T09:39:57.764Z,92.99
2022-10-23T09:41:18.163Z,92.99
2022-10-23T09:41:58.883Z,92.99
2022-10-23T09:42:58.598Z,93.19
2022-10-23T09:43:59.543Z,92.99
2022-10-23T09:44:59.332Z,92.88
2022-10-23T09:45:58.332Z,92.74
2022-10-23T09:46:58.902Z,92.94
2022-10-23T09:47:58.621Z,92.94
2022-10-23T09:49:00.970Z,92.94
2022-10-23T09:49:58.822Z,93.15
2022-10-23T09:51:17.640Z,92.74
2022-10-23T09:51:59.386Z,92.54
2022-10-23T09:52:57.680Z,92.64
2022-10-23T09:53:57.937Z,92.64
2022-10-23T09:54:57.693Z,92.24
2022-10-23T09:55:57.947Z,92.33
2022-10-23T09:56:57.690Z,92.54
2022-10-23T09:57:57.934Z,92.24
2022-10-23T09:59:07.393Z,92.24
2022-10-23T09:59:57.692Z,92.09
2022-10-23T10:01:18.003Z,91.78
2022-10-23T10:01:57.817Z,91.89
2022-10-23T10:02:57.414Z,91.89
2022-10-23T10:03:57.650Z,91.78
2022-10-23T10:04:57.905Z,91.89
2022-10-23T10:05:57.645Z,91.69
2022-10-23T10:06:57.395Z,91.78
2022-10-23T10:07:57.639Z,91.89
2022-10-23T10:08:57.381Z,91.38
2022-10-23T10:09:57.620Z,91.69
2022-10-23T10:11:19.919Z,92.19
2022-10-23T10:11:57.602Z,92.09
2022-10-23T10:12:59.291Z,91.89
2022-10-23T10:13:57.580Z,91.89
2022-10-23T10:14:57.326Z,91.89
2022-10-23T10:15:57.586Z,92.19
2022-10-23T10:16:57.313Z,92.40
2022-10-23T10:17:57.573Z,91.99
2022-10-23T10:18:57.308Z,91.89
2022-10-23T10:19:57.543Z,91.99
2022-10-23T10:21:17.303Z,91.49
2022-10-23T10:21:57.534Z,91.69
2022-10-23T10:22:57.273Z,91.18
2022-10-23T10:23:57.511Z,91.24
2022-10-23T10:24:57.255Z,91.34
2022-10-23T10:25:57.491Z,91.44
2022-10-23T10:26:57.252Z,91.09
2022-10-23T10:27:57.495Z,90.28
2022-10-23T10:28:57.218Z,90.14
2022-10-23T10:29:57.465Z,89.54
2022-10-23T10:31:17.237Z,88.93
2022-10-23T10:31:57.464Z,88.93
2022-10-23T10:32:57.206Z,88.79
2022-10-23T10:33:57.466Z,88.28
2022-10-23T10:34:57.206Z,88.28
2022-10-23T10:35:57.457Z,88.45
2022-10-23T10:36:57.210Z,87.94
2022-10-23T10:37:57.435Z,88.04
2022-10-23T10:38:57.187Z,87.84
2022-10-23T10:39:57.432Z,88.04
2022-10-23T10:41:17.186Z,87.94
2022-10-23T10:41:57.417Z,87.74
2022-10-23T10:42:57.148Z,87.94
2022-10-23T10:43:57.413Z,88.34
2022-10-23T10:44:57.131Z,87.54
2022-10-23T10:45:57.374Z,87.54
2022-10-23T10:46:57.124Z,88.04
2022-10-23T10:47:57.368Z,87.43
2022-10-23T10:48:57.122Z,87.29
2022-10-23T10:49:57.358Z,87.40
2022-10-23T10:51:17.141Z,87.29
2022-10-23T10:51:57.344Z,86.49
2022-10-23T10:52:57.093Z,86.58
2022-10-23T10:53:57.329Z,86.99
2022-10-23T10:54:57.063Z,87.09
2022-10-23T10:55:57.334Z,86.79
2022-10-23T10:56:57.042Z,86.58
2022-10-23T10:57:59.289Z,86.89
2022-10-23T10:58:57.062Z,87.09
2022-10-23T10:59:57.313Z,87.09
2022-10-23T11:01:17.205Z,86.58
2022-10-23T11:01:57.917Z,86.99
2022-10-23T11:02:57.042Z,87.19
2022-10-23T11:03:56.782Z,87.49
2022-10-23T11:04:57.020Z,87.80
2022-10-23T11:05:56.830Z,87.60
2022-10-23T11:06:57.017Z,87.40
2022-10-23T11:07:56.775Z,86.99
2022-10-23T11:09:04.025Z,87.19
2022-10-23T11:09:58.255Z,86.75
2022-10-23T11:11:17.016Z,85.34
2022-10-23T11:11:56.734Z,85.40
2022-10-23T11:12:56.994Z,84.69
2022-10-23T11:13:56.740Z,84.55
2022-10-23T11:14:56.969Z,84.65
2022-10-23T11:15:56.718Z,84.45
2022-10-23T11:16:56.961Z,85.05
2022-10-23T11:17:56.709Z,84.21
2022-10-23T11:18:56.968Z,83.91
2022-10-23T11:19:56.723Z,84.01
2022-10-23T11:21:16.986Z,84.11
2022-10-23T11:21:56.712Z,83.61
2022-10-23T11:22:56.942Z,83.61
2022-10-23T11:23:56.756Z,84.01
2022-10-23T11:24:58.200Z,83.91
2022-10-23T11:25:56.675Z,83.31
2022-10-23T11:26:56.922Z,83.20
2022-10-23T11:28:01.691Z,83.00
2022-10-23T11:28:57.912Z,83.31
2022-10-23T11:29:56.661Z,83.37
2022-10-23T11:31:16.915Z,82.97
2022-10-23T11:31:56.645Z,82.86
2022-10-23T11:32:56.896Z,83.03
2022-10-23T11:33:56.651Z,82.32
2022-10-23T11:34:56.888Z,82.52
2022-10-23T11:35:56.629Z,81.52
2022-10-23T11:36:56.865Z,81.41
2022-10-23T11:37:56.613Z,81.82
2022-10-23T11:38:56.848Z,81.72
2022-10-23T11:39:56.588Z,81.58
2022-10-23T11:41:18.969Z,81.64
2022-10-23T11:41:56.577Z,80.63
2022-10-23T11:42:56.836Z,81.04
2022-10-23T11:43:56.573Z,80.83
2022-10-23T11:44:56.825Z,81.34
2022-10-23T11:45:56.549Z,81.44
2022-10-23T11:46:56.784Z,80.24
2022-10-23T11:47:56.538Z,80.54
2022-10-23T11:48:56.777Z,80.37
2022-10-23T11:49:56.541Z,81.07
2022-10-23T11:51:16.794Z,81.68
2022-10-23T11:51:56.511Z,81.78
2022-10-23T11:53:13.038Z,81.98
2022-10-23T11:53:57.504Z,82.02
2022-10-23T11:54:56.732Z,82.02
2022-10-23T11:55:56.497Z,81.92
2022-10-23T11:56:56.730Z,82.42
2022-10-23T11:57:56.480Z,82.82
2022-10-23T11:58:57.005Z,82.72
2022-10-23T11:59:56.527Z,82.12
2022-10-23T12:01:16.362Z,82.12
2022-10-23T12:01:56.536Z,82.82
2022-10-23T12:02:59.202Z,82.82
2022-10-23T12:03:56.504Z,83.43
2022-10-23T12:04:56.808Z,83.23
2022-10-23T12:05:56.579Z,83.33
2022-10-23T12:06:56.253Z,83.33
2022-10-23T12:07:57.022Z,83.53
2022-10-23T12:08:56.267Z,82.22
2022-10-23T12:09:56.508Z,82.48
2022-10-23T12:11:16.258Z,83.09
2022-10-23T12:11:56.479Z,82.78
2022-10-23T12:12:56.233Z,83.18
2022-10-23T12:13:57.227Z,82.78
2022-10-23T12:14:56.228Z,82.18
2022-10-23T12:15:59.955Z,82.89
2022-10-23T12:16:56.214Z,82.58
2022-10-23T12:17:56.479Z,82.38
2022-10-23T12:18:56.209Z,81.48
2022-10-23T12:19:56.460Z,82.34
2022-10-23T12:21:16.225Z,82.54
2022-10-23T12:21:56.465Z,81.68
2022-10-23T12:22:56.199Z,82.18
2022-10-23T12:23:56.440Z,82.38
2022-10-23T12:24:56.210Z,82.68
2022-10-23T12:25:55.932Z,82.18
2022-10-23T12:26:56.190Z,81.78
2022-10-23T12:27:55.928Z,82.38
2022-10-23T12:28:56.160Z,82.58
2022-10-23T12:29:55.912Z,82.18
2022-10-23T12:31:17.661Z,82.08
2022-10-23T12:31:55.943Z,82.28
2022-10-23T12:32:56.214Z,82.38
2022-10-23T12:33:55.945Z,82.28
2022-10-23T12:34:56.193Z,82.48
2022-10-23T12:35:55.942Z,82.89
2022-10-23T12:36:56.177Z,82.38
2022-10-23T12:37:55.943Z,82.38
2022-10-23T12:38:56.172Z,82.98
2022-10-23T12:39:55.904Z,83.29
2022-10-23T12:41:17.203Z,83.29
2022-10-23T12:41:55.982Z,83.09
2022-10-23T12:42:56.227Z,83.09
2022-10-23T12:43:55.986Z,82.58
2022-10-23T12:44:56.215Z,82.58
2022-10-23T12:45:55.965Z,82.89
2022-10-23T12:46:56.208Z,82.48
2022-10-23T12:47:55.953Z,82.38
2022-10-23T12:48:55.703Z,82.95
2022-10-23T12:49:55.958Z,82.54
2022-10-23T12:51:17.187Z,82.45
2022-10-23T12:51:55.969Z,82.75
2022-10-23T12:52:55.719Z,82.75
2022-10-23T12:53:55.965Z,82.75
2022-10-23T12:54:55.713Z,82.58
2022-10-23T12:55:56.024Z,82.95